createdAt,value
2018-11-11T00:01:58.953Z,69.68
2018-11-11T00:04:27.622Z,70.26
2018-11-11T00:06:56.252Z,69.41
2018-11-11T00:09:25.014Z,69.73
2018-11-11T00:11:53.692Z,69.93
2018-11-11T00:14:22.324Z,70.65
2018-11-11T00:16:50.969Z,69.31
2018-11-11T00:19:19.621Z,68.78
2018-11-11T00:21:48.292Z,70.39
2018-11-11T00:24:17.090Z,69.77
2018-11-11T00:26:45.745Z,70.21
2018-11-11T00:29:14.381Z,69.77
2018-11-11T00:31:43.081Z,71.05
2018-11-11T00:34:11.777Z,70.96
2018-11-11T00:36:40.425Z,72.08
2018-11-11T00:39:10.469Z,72.23
2018-11-11T00:41:39.242Z,71.72
2018-11-11T00:44:07.945Z,71.89
2018-11-11T00:46:36.704Z,72.49
2018-11-11T00:49:05.719Z,72.58
2018-11-11T00:51:34.363Z,73.20
2018-11-11T00:54:03.131Z,72.46
2018-11-11T00:56:31.893Z,72.44
2018-11-11T00:59:00.536Z,73.07
2018-11-11T01:01:29.255Z,72.62
2018-11-11T01:03:57.952Z,72.72
2018-11-11T01:06:26.616Z,72.69
2018-11-11T01:08:55.271Z,72.89
2018-11-11T01:11:24.024Z,73.32
2018-11-11T01:13:52.674Z,73.56
2018-11-11T01:16:21.387Z,73.92
2018-11-11T01:18:50.077Z,72.95
2018-11-11T01:21:18.692Z,73.36
2018-11-11T01:23:47.391Z,73.63
2018-11-11T01:26:15.984Z,73.38
2018-11-11T01:28:44.697Z,72.70
2018-11-11T01:31:13.405Z,72.81
2018-11-11T01:33:42.049Z,73.42
2018-11-11T01:36:10.760Z,73.81
2018-11-11T01:38:39.449Z,73.35
2018-11-11T01:41:08.109Z,73.97
2018-11-11T01:43:36.837Z,73.06
2018-11-11T01:46:05.758Z,73.70
2018-11-11T01:48:34.405Z,73.97
2018-11-11T01:51:03.092Z,74.03
2018-11-11T01:53:31.730Z,73.94
2018-11-11T01:56:00.391Z,74.50
2018-11-11T01:58:29.051Z,74.30
2018-11-11T02:00:57.709Z,74.88
2018-11-11T02:03:26.423Z,75.16
2018-11-11T02:05:55.174Z,74.34
2018-11-11T02:08:23.848Z,75.12
2018-11-11T02:10:52.464Z,74.91
2018-11-11T02:13:21.125Z,74.61
2018-11-11T02:15:50.172Z,75.42
2018-11-11T02:18:18.858Z,74.95
2018-11-11T02:20:48.324Z,74.96
2018-11-11T02:23:17.066Z,74.74
2018-11-11T02:25:45.691Z,76.10
2018-11-11T02:28:14.321Z,75.42
2018-11-11T02:30:42.992Z,75.25
2018-11-11T02:33:11.650Z,75.70
2018-11-11T02:35:40.281Z,76.00
2018-11-11T02:38:08.960Z,75.16
2018-11-11T02:40:37.880Z,75.41
2018-11-11T02:43:06.540Z,75.64
2018-11-11T02:45:35.843Z,76.07
2018-11-11T02:48:04.496Z,74.76
2018-11-11T02:50:33.295Z,75.82
2018-11-11T02:53:01.944Z,74.96
2018-11-11T02:55:30.596Z,75.56
2018-11-11T02:57:59.327Z,75.07
2018-11-11T03:00:28.003Z,75.21
2018-11-11T03:02:56.669Z,75.49
2018-11-11T03:05:25.316Z,75.06
2018-11-11T03:07:53.940Z,75.57
2018-11-11T03:10:22.611Z,75.68
2018-11-11T03:12:51.753Z,75.43
2018-11-11T03:15:20.725Z,75.51
2018-11-11T03:17:49.422Z,75.41
2018-11-11T03:20:18.516Z,75.92
2018-11-11T03:22:47.185Z,75.38
2018-11-11T03:25:16.569Z,75.80
2018-11-11T03:27:45.245Z,75.47
2018-11-11T03:30:15.367Z,75.79
2018-11-11T03:32:44.040Z,75.68
2018-11-11T03:35:13.548Z,75.73
2018-11-11T03:37:42.853Z,75.58
2018-11-11T03:40:15.465Z,75.65
2018-11-11T03:42:44.916Z,75.47
2018-11-11T03:45:15.074Z,76.17
2018-11-11T03:47:44.734Z,75.82
2018-11-11T03:50:13.484Z,74.97
2018-11-11T03:52:42.462Z,75.95
2018-11-11T03:55:11.547Z,75.34
2018-11-11T03:57:40.297Z,75.76
2018-11-11T04:00:10.929Z,75.60
2018-11-11T04:02:39.712Z,75.95
2018-11-11T04:05:09.924Z,75.75
2018-11-11T04:07:38.799Z,76.03
2018-11-11T04:10:09.545Z,75.71
2018-11-11T04:12:38.558Z,76.14
2018-11-11T04:15:08.898Z,75.58
2018-11-11T04:17:38.129Z,75.37
2018-11-11T04:20:08.604Z,76.15
2018-11-11T04:22:37.257Z,75.95
2018-11-11T04:25:06.090Z,76.14
2018-11-11T04:27:34.954Z,76.44
2018-11-11T04:30:07.556Z,76.25
2018-11-11T04:32:36.217Z,76.30
2018-11-11T04:35:05.546Z,76.77
2018-11-11T04:37:34.201Z,75.98
2018-11-11T04:40:02.877Z,76.27
2018-11-11T04:42:31.548Z,76.08
2018-11-11T04:45:00.173Z,76.41
2018-11-11T04:47:28.841Z,76.09
2018-11-11T04:49:57.475Z,76.36
2018-11-11T04:52:26.114Z,76.58
2018-11-11T04:54:54.756Z,76.34
2018-11-11T04:57:23.378Z,76.91
2018-11-11T04:59:52.017Z,76.60
2018-11-11T05:02:20.655Z,76.50
2018-11-11T05:04:49.701Z,76.73
2018-11-11T05:07:18.292Z,76.46
2018-11-11T05:09:46.922Z,76.11
2018-11-11T05:12:15.555Z,76.20
2018-11-11T05:14:44.248Z,76.46
2018-11-11T05:17:13.045Z,76.77
2018-11-11T05:19:41.745Z,76.77
2018-11-11T05:22:10.392Z,77.00
2018-11-11T05:24:39.044Z,76.25
2018-11-11T05:27:07.722Z,76.63
2018-11-11T05:29:36.363Z,76.98
2018-11-11T05:32:05.346Z,77.30
2018-11-11T05:34:33.986Z,76.76
2018-11-11T05:37:02.639Z,77.07
2018-11-11T05:39:31.295Z,76.79
2018-11-11T05:41:59.936Z,76.84
2018-11-11T05:44:28.593Z,76.75
2018-11-11T05:46:57.282Z,76.64
2018-11-11T05:49:26.152Z,76.96
2018-11-11T05:51:54.822Z,76.47
2018-11-11T05:54:23.477Z,76.25
2018-11-11T05:56:52.101Z,76.11
2018-11-11T05:59:20.877Z,77.01
2018-11-11T06:01:49.593Z,76.99
2018-11-11T06:04:18.313Z,76.79
2018-11-11T06:06:46.954Z,77.22
2018-11-11T06:09:15.572Z,76.76
2018-11-11T06:11:44.236Z,76.76
2018-11-11T06:14:12.894Z,76.57
2018-11-11T06:16:41.632Z,76.66
2018-11-11T06:19:10.270Z,77.82
2018-11-11T06:21:38.985Z,76.40
2018-11-11T06:24:07.660Z,75.36
2018-11-11T06:26:36.426Z,74.97
2018-11-11T06:29:05.135Z,75.46
2018-11-11T06:31:33.785Z,75.79
2018-11-11T06:34:02.467Z,75.67
2018-11-11T06:36:31.175Z,75.69
2018-11-11T06:38:59.825Z,75.33
2018-11-11T06:41:28.493Z,74.87
2018-11-11T06:43:57.123Z,75.12
2018-11-11T06:46:25.765Z,74.49
2018-11-11T06:48:54.459Z,74.96
2018-11-11T06:51:23.168Z,74.70
2018-11-11T06:53:51.834Z,74.06
2018-11-11T06:56:20.564Z,74.13
2018-11-11T06:58:49.202Z,74.01
2018-11-11T07:01:17.841Z,74.60
2018-11-11T07:03:54.156Z,74.66
2018-11-11T07:06:23.373Z,74.53
2018-11-11T07:08:52.163Z,74.09
2018-11-11T07:11:20.876Z,74.07
2018-11-11T07:13:49.658Z,73.12
2018-11-11T07:16:18.326Z,73.33
2018-11-11T07:18:47.677Z,72.54
2018-11-11T07:21:17.170Z,73.28
2018-11-11T07:23:46.471Z,71.74
2018-11-11T07:26:16.606Z,72.23
2018-11-11T07:28:45.352Z,72.24
2018-11-11T07:31:14.080Z,71.18
2018-11-11T07:33:42.796Z,70.77
2018-11-11T07:36:12.235Z,71.06
2018-11-11T07:38:40.805Z,70.06
2018-11-11T07:41:09.970Z,71.49
2018-11-11T07:43:39.087Z,70.25
2018-11-11T07:46:07.980Z,70.12
2018-11-11T07:48:36.693Z,69.92
2018-11-11T07:51:05.676Z,69.98
2018-11-11T07:53:34.357Z,69.46
2018-11-11T07:56:03.089Z,68.83
2018-11-11T07:58:32.040Z,68.61
2018-11-11T08:01:00.631Z,69.11
2018-11-11T08:03:29.501Z,69.28
2018-11-11T08:05:59.250Z,68.61
2018-11-11T08:08:27.972Z,67.73
2018-11-11T08:11:07.819Z,67.34
2018-11-11T09:23:11.077Z,52.30
2018-11-11T09:25:39.829Z,51.13
2018-11-11T09:28:08.584Z,50.36
2018-11-11T09:30:37.365Z,49.24
2018-11-11T09:33:06.293Z,48.46
2018-11-11T09:35:35.178Z,48.58
2018-11-11T09:38:03.977Z,47.90
2018-11-11T09:40:32.687Z,47.97
2018-11-11T09:43:01.456Z,48.07
2018-11-11T09:45:30.250Z,47.41
2018-11-11T09:47:59.011Z,47.04
2018-11-11T09:50:27.737Z,46.99
2018-11-11T09:52:56.462Z,45.97
2018-11-11T09:55:25.175Z,46.00
2018-11-11T09:57:53.839Z,45.96
2018-11-11T10:00:23.092Z,45.42
2018-11-11T10:02:57.193Z,45.11
2018-11-11T10:05:31.786Z,44.88
2018-11-11T10:08:08.796Z,44.09
2018-11-11T10:11:11.902Z,43.97
2018-11-11T10:13:45.709Z,44.18
2018-11-11T10:16:19.601Z,43.69
2018-11-11T10:19:10.586Z,42.83
2018-11-11T10:21:46.117Z,43.23
2018-11-11T10:24:33.041Z,43.06
2018-11-11T10:27:07.508Z,42.50
2018-11-11T10:30:11.522Z,42.39
2018-11-11T10:33:01.585Z,42.10
2018-11-11T10:35:34.548Z,42.00
2018-11-11T10:38:11.280Z,41.59
2018-11-11T10:40:52.149Z,41.26
2018-11-11T10:43:28.168Z,40.35
2018-11-11T10:46:06.606Z,40.23
2018-11-11T10:48:46.369Z,39.99
2018-11-11T10:51:15.093Z,39.19
2018-11-11T10:53:44.536Z,38.97
2018-11-11T10:56:13.265Z,39.10
2018-11-11T10:58:41.959Z,39.35
2018-11-11T11:01:15.843Z,38.26
2018-11-11T11:03:44.504Z,38.29
2018-11-11T11:06:13.314Z,38.63
2018-11-11T11:08:47.269Z,38.22
2018-11-11T11:11:17.030Z,37.75
2018-11-11T11:13:45.704Z,37.86
2018-11-11T11:16:14.475Z,37.28
2018-11-11T11:18:43.090Z,37.60
2018-11-11T11:21:11.764Z,36.61
2018-11-11T11:23:40.457Z,36.44
2018-11-11T11:26:09.259Z,36.25
2018-11-11T11:30:58.154Z,36.56
2018-11-11T11:33:27.199Z,36.67
2018-11-11T11:35:55.893Z,35.52
2018-11-11T11:38:24.620Z,36.25
2018-11-11T11:40:53.306Z,35.51
2018-11-11T11:43:21.958Z,35.47
2018-11-11T11:45:50.654Z,36.30
2018-11-11T11:48:19.303Z,35.48
2018-11-11T11:50:47.941Z,35.53
2018-11-11T11:53:16.679Z,35.05
2018-11-11T11:55:45.354Z,35.16
2018-11-11T11:58:19.629Z,34.80
2018-11-11T12:00:48.273Z,35.56
2018-11-11T12:03:17.066Z,35.63
2018-11-11T12:05:46.404Z,35.22
2018-11-11T12:08:15.130Z,35.43
2018-11-11T12:10:44.037Z,35.39
2018-11-11T12:13:13.725Z,34.67
2018-11-11T12:15:43.146Z,34.31
2018-11-11T12:18:12.157Z,34.37
2018-11-11T12:20:41.243Z,34.41
2018-11-11T12:23:10.223Z,34.32
2018-11-11T12:25:39.454Z,34.85
2018-11-11T12:28:08.465Z,33.95
2018-11-11T12:30:37.249Z,34.29
2018-11-11T12:33:06.375Z,34.05
2018-11-11T12:35:38.356Z,34.44
2018-11-11T12:38:07.086Z,34.65
2018-11-11T12:40:35.759Z,33.93
2018-11-11T12:43:04.478Z,34.59
2018-11-11T12:45:33.147Z,34.32
2018-11-11T12:48:01.866Z,34.53
2018-11-11T12:50:30.686Z,34.48
2018-11-11T12:52:59.264Z,34.87
2018-11-11T12:55:28.079Z,34.93
2018-11-11T12:57:56.669Z,35.17
2018-11-11T13:00:25.375Z,34.50
2018-11-11T13:02:54.012Z,35.01
2018-11-11T13:05:22.687Z,34.64
2018-11-11T13:07:51.379Z,33.51
2018-11-11T13:10:20.142Z,33.89
2018-11-11T13:12:48.874Z,34.38
2018-11-11T13:15:17.869Z,34.40
2018-11-11T13:17:46.543Z,34.37
2018-11-11T13:20:17.345Z,33.98
2018-11-11T13:22:46.176Z,33.69
2018-11-11T13:25:15.175Z,33.72
2018-11-11T13:27:43.880Z,34.76
2018-11-11T13:30:13.950Z,34.91
2018-11-11T13:32:42.640Z,34.45
2018-11-11T13:35:13.839Z,34.19
2018-11-11T13:37:43.023Z,34.02
2018-11-11T13:40:14.293Z,35.04
2018-11-11T13:42:43.045Z,34.83
2018-11-11T13:45:21.919Z,35.65
2018-11-11T13:47:51.088Z,35.66
2018-11-11T13:50:22.082Z,36.24
2018-11-11T13:52:50.830Z,36.52
2018-11-11T13:55:20.065Z,36.61
2018-11-11T13:57:49.168Z,36.53
2018-11-11T14:00:20.278Z,36.98
2018-11-11T14:02:48.974Z,37.14
2018-11-11T14:05:18.380Z,37.25
2018-11-11T14:07:47.125Z,37.59
2018-11-11T14:10:16.277Z,38.33
2018-11-11T14:12:45.113Z,37.41
2018-11-11T14:15:18.857Z,38.30
2018-11-11T14:17:47.974Z,38.32
2018-11-11T14:20:17.929Z,38.31
2018-11-11T14:22:48.444Z,39.08
2018-11-11T14:25:20.014Z,39.00
2018-11-11T14:27:48.651Z,38.87
2018-11-11T14:30:19.796Z,39.08
2018-11-11T14:32:49.364Z,40.09
2018-11-11T14:35:18.076Z,40.39
2018-11-11T14:37:47.221Z,40.58
2018-11-11T14:40:18.870Z,40.38
2018-11-11T14:42:47.681Z,40.54
2018-11-11T14:45:16.988Z,41.04
2018-11-11T14:47:46.718Z,41.98
2018-11-11T14:50:16.647Z,42.21
2018-11-11T14:52:45.833Z,43.46
2018-11-11T14:55:17.016Z,44.17
2018-11-11T14:57:45.701Z,44.54
2018-11-11T15:00:20.654Z,45.51
2018-11-11T15:03:09.565Z,46.21
2018-11-11T15:05:38.321Z,46.51
2018-11-11T15:08:07.133Z,47.17
2018-11-11T15:10:35.809Z,47.32
2018-11-11T15:13:04.579Z,47.71
2018-11-11T15:15:33.276Z,48.22
2018-11-11T15:18:02.459Z,48.79
2018-11-11T15:20:31.723Z,49.39
2018-11-11T15:23:00.381Z,49.65
2018-11-11T15:25:29.940Z,49.74
2018-11-11T15:27:58.699Z,49.89
2018-11-11T15:30:28.747Z,50.66
2018-11-11T15:32:58.030Z,50.92
2018-11-11T15:35:26.691Z,51.15
2018-11-11T15:37:55.352Z,51.66
2018-11-11T15:40:26.495Z,51.64
2018-11-11T15:42:55.371Z,51.60
2018-11-11T15:45:25.364Z,51.85
2018-11-11T15:47:54.249Z,52.42
2018-11-11T15:50:24.984Z,52.85
2018-11-11T15:52:54.783Z,53.37
2018-11-11T15:55:24.834Z,54.00
2018-11-11T15:57:53.637Z,54.15
2018-11-11T16:00:23.802Z,54.49
2018-11-11T16:02:52.473Z,54.75
2018-11-11T16:05:21.336Z,55.10
2018-11-11T16:07:50.974Z,55.43
2018-11-11T16:10:21.068Z,55.42
2018-11-11T16:12:49.948Z,54.95
2018-11-11T16:15:21.123Z,55.40
2018-11-11T16:17:51.194Z,55.24
2018-11-11T16:20:21.319Z,55.12
2018-11-11T16:22:51.124Z,55.11
2018-11-11T16:25:19.884Z,55.46
2018-11-11T16:27:49.084Z,55.54
2018-11-11T16:30:19.490Z,55.77
2018-11-11T16:32:48.893Z,55.77
2018-11-11T16:35:18.666Z,55.77
2018-11-11T16:37:47.308Z,55.26
2018-11-11T16:42:30.626Z,55.43
2018-11-11T16:44:59.370Z,55.43
2018-11-11T16:47:27.993Z,55.29
2018-11-11T16:49:56.729Z,55.58
2018-11-11T16:52:25.374Z,55.11
2018-11-11T16:54:54.013Z,55.35
2018-11-11T16:57:22.730Z,55.04
2018-11-11T16:59:51.413Z,54.91
2018-11-11T17:02:20.058Z,55.79
2018-11-11T17:04:48.685Z,55.75
2018-11-11T17:07:17.335Z,56.25
2018-11-11T17:09:46.013Z,56.68
2018-11-11T17:12:14.977Z,56.24
2018-11-11T17:14:43.777Z,56.36
2018-11-11T17:17:12.602Z,56.74
2018-11-11T17:19:41.912Z,56.86
2018-11-11T17:22:11.009Z,56.76
2018-11-11T17:24:39.401Z,57.72
2018-11-11T17:27:08.068Z,57.28
2018-11-11T17:29:36.779Z,57.79
2018-11-11T17:32:06.214Z,58.00
2018-11-11T17:34:34.897Z,57.60
2018-11-11T17:37:03.745Z,57.50
2018-11-11T17:39:32.562Z,57.57
2018-11-11T17:42:01.202Z,57.88
2018-11-11T17:44:29.827Z,58.77
2018-11-11T17:46:58.469Z,58.88
2018-11-11T17:49:27.214Z,59.07
2018-11-11T17:51:55.941Z,59.36
2018-11-11T17:54:24.645Z,59.20
2018-11-11T17:56:53.310Z,60.25
2018-11-11T17:59:21.942Z,60.71
2018-11-11T18:01:53.189Z,60.86
2018-11-11T18:04:21.995Z,61.39
2018-11-11T18:06:50.679Z,61.38
2018-11-11T18:09:19.322Z,61.55
2018-11-11T18:11:48.141Z,61.69
2018-11-11T18:14:16.849Z,62.25
2018-11-11T18:16:45.488Z,61.64
2018-11-11T18:19:14.276Z,62.36
2018-11-11T18:21:42.956Z,62.40
2018-11-11T18:24:11.634Z,62.14
2018-11-11T18:26:40.325Z,62.27
2018-11-11T18:29:09.106Z,62.83
2018-11-11T18:31:37.820Z,62.68
2018-11-11T18:34:06.587Z,62.47
2018-11-11T18:36:35.289Z,62.58
2018-11-11T18:39:04.989Z,62.53
2018-11-11T18:41:33.790Z,62.26
2018-11-11T18:44:02.467Z,62.47
2018-11-11T18:46:31.111Z,62.39
2018-11-11T18:48:59.833Z,63.08
2018-11-11T18:51:28.437Z,62.96
2018-11-11T18:53:57.080Z,63.26
2018-11-11T18:56:25.762Z,63.38
2018-11-11T18:58:54.981Z,63.62
2018-11-11T19:01:27.880Z,63.98
2018-11-11T19:03:56.538Z,63.29
2018-11-11T19:06:25.303Z,63.13
2018-11-11T19:08:53.968Z,63.56
2018-11-11T19:11:22.589Z,63.56
2018-11-11T19:13:51.236Z,63.22
2018-11-11T19:16:19.850Z,63.08
2018-11-11T19:18:48.680Z,63.34
2018-11-11T19:21:17.480Z,63.65
2018-11-11T19:23:47.373Z,63.09
2018-11-11T19:26:16.031Z,62.83
2018-11-11T19:28:44.779Z,63.79
2018-11-11T19:31:13.434Z,63.35
2018-11-11T19:33:42.141Z,63.91
2018-11-11T19:36:10.757Z,62.95
2018-11-11T19:38:39.846Z,63.10
2018-11-11T19:41:08.949Z,63.27
2018-11-11T19:43:38.032Z,63.42
2018-11-11T19:46:06.831Z,64.29
2018-11-11T19:48:35.586Z,63.75
2018-11-11T19:51:04.630Z,63.74
2018-11-11T19:53:33.324Z,63.42
2018-11-11T19:56:02.617Z,63.78
2018-11-11T19:58:31.301Z,64.09
2018-11-11T20:01:00.026Z,64.15
2018-11-11T20:03:28.704Z,64.22
2018-11-11T20:05:57.435Z,65.20
2018-11-11T20:08:26.427Z,65.21
2018-11-11T20:10:55.121Z,66.09
2018-11-11T20:13:23.815Z,66.04
2018-11-11T20:15:52.828Z,66.18
2018-11-11T20:18:21.734Z,66.46
2018-11-11T20:20:50.423Z,66.56
2018-11-11T20:23:20.126Z,66.87
2018-11-11T20:25:48.988Z,66.51
2018-11-11T20:28:17.658Z,66.89
2018-11-11T20:30:46.422Z,66.04
2018-11-11T20:33:15.099Z,66.91
2018-11-11T20:35:43.796Z,66.47
2018-11-11T20:38:12.365Z,66.53
2018-11-11T20:40:41.056Z,66.17
2018-11-11T20:43:09.832Z,66.96
2018-11-11T20:45:38.810Z,66.78
2018-11-11T20:48:07.545Z,67.47
2018-11-11T20:50:36.205Z,67.14
2018-11-11T20:53:06.049Z,67.51
2018-11-11T20:55:34.797Z,67.69
2018-11-11T20:58:03.777Z,67.92
2018-11-11T21:00:34.076Z,67.95
2018-11-11T21:03:02.749Z,68.08
2018-11-11T21:05:31.531Z,67.88
2018-11-11T21:08:00.568Z,67.76
2018-11-11T21:10:29.942Z,66.92
2018-11-11T21:12:59.366Z,67.36
2018-11-11T21:15:29.281Z,67.62
2018-11-11T21:17:57.959Z,67.87
2018-11-11T21:20:29.162Z,68.16
2018-11-11T21:22:57.859Z,68.43
2018-11-11T21:25:26.622Z,68.26
2018-11-11T21:27:55.286Z,68.38
2018-11-11T21:30:29.084Z,69.09
2018-11-11T21:32:57.909Z,69.32
2018-11-11T21:35:26.552Z,69.32
2018-11-11T21:37:55.250Z,69.81
2018-11-11T21:40:25.182Z,69.24
2018-11-11T21:42:54.852Z,70.00
2018-11-11T21:45:24.559Z,70.07
2018-11-11T21:47:53.238Z,70.79
2018-11-11T21:50:24.197Z,70.90
2018-11-11T21:53:00.344Z,70.03
2018-11-11T21:55:28.931Z,70.50
2018-11-11T21:57:57.585Z,70.60
2018-11-11T22:00:26.252Z,71.00
2018-11-11T22:02:54.996Z,70.50
2018-11-11T22:05:23.618Z,70.87
2018-11-11T22:07:56.652Z,71.31
2018-11-11T22:10:25.285Z,70.46
2018-11-11T22:12:53.943Z,70.58
2018-11-11T22:15:22.613Z,70.83
2018-11-11T22:17:51.286Z,70.59
2018-11-11T22:20:19.973Z,69.94
2018-11-11T22:22:48.692Z,69.49
2018-11-11T22:25:17.374Z,70.48
2018-11-11T22:27:46.007Z,69.37
2018-11-11T22:30:14.664Z,69.56
2018-11-11T22:32:43.288Z,70.18
2018-11-11T22:35:12.261Z,69.66
2018-11-11T22:37:40.973Z,69.30
2018-11-11T22:40:11.497Z,70.36
2018-11-11T22:42:40.197Z,70.19
2018-11-11T22:45:12.720Z,70.08
2018-11-11T22:47:41.780Z,68.96
2018-11-11T22:50:12.383Z,69.75
2018-11-11T22:52:44.459Z,69.44
2018-11-11T22:55:13.388Z,69.90
2018-11-11T22:57:42.585Z,69.23
2018-11-11T23:00:19.363Z,69.05
2018-11-11T23:02:48.113Z,70.38
2018-11-11T23:05:18.003Z,70.56
2018-11-11T23:07:46.937Z,71.11
2018-11-11T23:10:15.724Z,70.93
2018-11-11T23:12:44.462Z,70.20
2018-11-11T23:15:14.626Z,70.98
2018-11-11T23:17:43.330Z,70.47
2018-11-11T23:20:13.902Z,70.56
2018-11-11T23:22:42.883Z,70.34
2018-11-11T23:25:13.032Z,70.53
2018-11-11T23:27:41.921Z,70.23
2018-11-11T23:30:12.912Z,70.82
2018-11-11T23:32:41.615Z,71.99
2018-11-11T23:35:10.952Z,72.12
2018-11-11T23:37:39.756Z,71.36
2018-11-11T23:40:10.047Z,71.16
2018-11-11T23:42:38.764Z,71.76
2018-11-11T23:45:07.518Z,72.42
2018-11-11T23:47:36.512Z,72.93
2018-11-11T23:50:06.166Z,71.52
2018-11-11T23:52:34.808Z,72.24
2018-11-11T23:55:03.549Z,72.35
2018-11-11T23:57:32.465Z,71.58
